Global Glory — 3FHR8 — position and weather

sailwx.info

Track history (hours):
 
Tides and Currents Weather Stations Pressure Air Temp Water Temp Dewpoint Dewpoint Depression Visibility Wind Speed Wind Dir Waves Ship Positions

Global Glory

Last reported at 2015-Mar-12 22:07 UTC. Time now 2015-Mar-27 08:13 UTC.
Position S 29°34' E 032°05'.
Warning: this ship's position is 14 days out of date.

Length 189 m; draft 5.8 m.

Type: Cargo ship. MMSI: 354338000.

Date/timePositionNaut miles runAvg speedWind from/ knotsBaromVisibWave heightAir tempDewpointWater temp
2015-Mar-12 22:07S 29°34' E 032°05'5 7.9
2015-Mar-12 21:32S 29°35' E 031°60'7 7.6
2015-Mar-12 20:33S 29°38' E 031°51'7 7.3
2015-Mar-12 19:33S 29°40' E 031°44'7 7.0
2015-Mar-12 18:33S 29°42' E 031°36'9 9.2
2015-Mar-12 17:33S 29°44' E 031°26'10 9.5
2015-Mar-12 16:33S 29°48' E 031°15'9 9.1
2015-Mar-12 15:33S 29°51' E 031°06'3 3.1
2015-Mar-12 14:28S 29°52' E 031°02'0 0.0
2015-Mar-12 13:28S 29°52' E 031°02'0 0.0
2015-Mar-12 12:28S 29°52' E 031°02'0 0.0
2015-Mar-12 11:28S 29°52' E 031°02'0 0.0
2015-Mar-12 10:28S 29°52' E 031°02'0 0.0
2015-Mar-12 09:28S 29°52' E 031°02'0 0.0
2015-Mar-12 08:16S 29°52' E 031°02'0 0.0
2015-Mar-12 07:28S 29°52' E 031°02'0 0.0
2015-Mar-12 06:22S 29°52' E 031°02'1 1.4
2015-Mar-12 05:32S 29°53' E 031°03'0 0.0
2015-Mar-12 04:32S 29°53' E 031°03'0 0.0
2015-Mar-12 03:32S 29°53' E 031°03'0 0.0
2015-Mar-12 02:32S 29°53' E 031°03'0 0.0
2015-Mar-12 01:32S 29°53' E 031°03'0 0.0
2015-Mar-12 00:32S 29°53' E 031°03'0 0.0
2015-Mar-11 23:32S 29°53' E 031°03'0 0.0
2015-Mar-11 22:32S 29°53' E 031°03'0 0.0
2015-Mar-11 21:26S 29°53' E 031°03'0 0.0
2015-Mar-11 20:32S 29°53' E 031°03'0 0.0
2015-Mar-11 19:32S 29°53' E 031°03'0 0.0
2015-Mar-11 18:32S 29°53' E 031°03'0 0.0
2015-Mar-11 17:32S 29°53' E 031°03'0 0.0
2015-Mar-11 16:20S 29°53' E 031°03'0 0.0
2015-Mar-11 15:32S 29°53' E 031°03'0 0.0
2015-Mar-11 14:32S 29°53' E 031°03'0 0.0
2015-Mar-11 13:32S 29°53' E 031°03'0 0.0
2015-Mar-11 12:32S 29°53' E 031°03'0 0.0
2015-Mar-11 11:32S 29°53' E 031°03'0 0.0
2015-Mar-11 10:26S 29°53' E 031°03'0 0.0
2015-Mar-11 09:32S 29°53' E 031°03'0 0.0
2015-Mar-11 08:32S 29°53' E 031°03'0 0.0
2015-Mar-11 07:32S 29°53' E 031°03'0 0.0
2015-Mar-11 06:32S 29°53' E 031°03'0 0.0
2015-Mar-11 05:32S 29°53' E 031°03'0 0.0
2015-Mar-11 04:32S 29°53' E 031°03'0 0.0
2015-Mar-11 03:32S 29°53' E 031°03'0 0.0
2015-Mar-11 02:32S 29°53' E 031°03'0 0.0
2015-Mar-11 01:32S 29°53' E 031°03'0 0.0
2015-Mar-11 00:32S 29°53' E 031°03'0 0.0
2015-Mar-10 23:32S 29°53' E 031°03'0 0.0
2015-Mar-10 22:32S 29°53' E 031°03'0 0.0
2015-Mar-10 21:32S 29°53' E 031°03'0 0.0
2015-Mar-10 20:32S 29°53' E 031°03'0 0.0
2015-Mar-10 19:32S 29°53' E 031°03'0 0.0
2015-Mar-10 18:32S 29°53' E 031°03'0 0.0
2015-Mar-10 17:32S 29°53' E 031°03'0 0.0
2015-Mar-10 16:26S 29°53' E 031°03'0 0.0
2015-Mar-09 17:14S 29°53' E 031°03'0 0.0
2015-Mar-09 15:32S 29°53' E 031°03'0 0.0
2015-Mar-09 03:32S 29°53' E 031°03'0 0.0
2015-Mar-09 02:32S 29°53' E 031°03'0 0.0
2015-Mar-09 01:32S 29°53' E 031°03'0 0.0
2015-Mar-09 00:32S 29°53' E 031°03'0 0.0
2015-Mar-08 23:32S 29°53' E 031°03'0 0.0
2015-Mar-08 22:32S 29°53' E 031°03'0 0.0
2015-Mar-08 21:32S 29°53' E 031°03'0 0.0
2015-Mar-08 20:32S 29°53' E 031°03'0 0.0
2015-Mar-08 19:32S 29°53' E 031°03'0 0.0
2015-Mar-08 18:32S 29°53' E 031°03'0 0.0
2015-Mar-08 17:32S 29°53' E 031°03'0 0.0
2015-Mar-08 16:32S 29°53' E 031°03'0 0.0
2015-Mar-08 15:32S 29°53' E 031°03'0 0.0
2015-Mar-08 14:32S 29°53' E 031°03'0 0.0
2015-Mar-08 13:26S 29°53' E 031°03'0 0.0
2015-Mar-08 12:32S 29°53' E 031°03'0 0.0
2015-Mar-08 11:32S 29°53' E 031°03'0 0.0
2015-Mar-08 10:32S 29°53' E 031°03'0 0.0
2015-Mar-08 09:32S 29°53' E 031°03'0 0.0
2015-Mar-08 08:32S 29°53' E 031°03'0 0.0
2015-Mar-08 07:20S 29°53' E 031°03'0 0.0
2015-Mar-08 06:32S 29°53' E 031°03'0 0.0
2015-Mar-08 05:32S 29°53' E 031°03'5 4.5
2015-Mar-08 04:31S 29°49' E 031°07'3 2.5
2015-Mar-08 03:23S 29°47' E 031°09'0 0.0
2015-Mar-08 02:23S 29°47' E 031°09'0 0.0
2015-Mar-08 01:29S 29°47' E 031°09'0 0.0
2015-Mar-08 00:29S 29°47' E 031°09'0 0.0
2015-Mar-07 23:29S 29°47' E 031°09'0 0.0
2015-Mar-07 22:29S 29°47' E 031°09'0 0.1
2015-Mar-07 21:23S 29°47' E 031°09'0 0.0
2015-Mar-07 20:29S 29°47' E 031°09'0 0.0
2015-Mar-07 19:29S 29°47' E 031°09'0 0.0
2015-Mar-07 18:29S 29°47' E 031°09'0 0.0
2015-Mar-07 17:29S 29°47' E 031°09'0 0.0
2015-Mar-07 16:29S 29°47' E 031°09'0 0.0
2015-Mar-07 15:29S 29°47' E 031°09'0 0.1
2015-Mar-07 14:29S 29°47' E 031°09'0 0.1
2015-Mar-07 13:29S 29°47' E 031°09'0 0.0
2015-Mar-07 12:29S 29°47' E 031°09'0 0.1
2015-Mar-07 11:29S 29°47' E 031°09'0 0.0
2015-Mar-07 10:23S 29°47' E 031°09'0 0.0
2015-Mar-07 09:23S 29°47' E 031°09'0 0.0
2015-Mar-07 08:23S 29°47' E 031°09'0 0.0
2015-Mar-07 07:29S 29°47' E 031°09'0 0.1
2015-Mar-07 06:29S 29°47' E 031°09'0 0.0
2015-Mar-07 05:29S 29°47' E 031°09'0 0.0
2015-Mar-07 04:29S 29°47' E 031°09'0 0.0
2015-Mar-07 03:29S 29°47' E 031°09'0 0.0
2015-Mar-07 02:29S 29°47' E 031°09'0 0.0
2015-Mar-07 01:29S 29°47' E 031°09'0 0.0
2015-Mar-07 00:29S 29°47' E 031°09'0 0.0
2015-Mar-06 23:29S 29°47' E 031°09'0 0.0
2015-Mar-06 22:29S 29°47' E 031°09'0 0.0
2015-Mar-06 21:29S 29°47' E 031°09'0 0.0
2015-Mar-06 20:29S 29°47' E 031°09'0 0.0
2015-Mar-06 19:29S 29°47' E 031°09'0 0.0
2015-Mar-06 18:29S 29°47' E 031°09'0 0.0
2015-Mar-06 17:29S 29°47' E 031°09'0 0.0
2015-Mar-06 16:29S 29°47' E 031°09'0 0.0
2015-Mar-06 15:29S 29°47' E 031°09'0 0.0
2015-Mar-06 14:29S 29°47' E 031°09'0 0.0
2015-Mar-06 13:29S 29°47' E 031°09'0 0.0
2015-Mar-06 12:29S 29°47' E 031°09'0 0.0
2015-Mar-06 11:23S 29°47' E 031°09'0 0.0
2015-Mar-06 10:29S 29°47' E 031°09'0 0.0
2015-Mar-06 09:29S 29°47' E 031°09'0 0.0
2015-Mar-06 08:29S 29°47' E 031°09'0 0.1
2015-Mar-06 07:23S 29°47' E 031°09'0 0.0
2015-Mar-06 06:29S 29°47' E 031°09'0 0.0
2015-Mar-06 05:29S 29°47' E 031°09'0 0.0
2015-Mar-06 04:29S 29°47' E 031°09'0 0.0
2015-Mar-06 03:29S 29°47' E 031°09'0 0.0
2015-Mar-06 02:29S 29°47' E 031°09'0 0.0
2015-Mar-06 01:29S 29°47' E 031°09'0 0.0
2015-Mar-06 00:29S 29°47' E 031°09'0 0.0
2015-Mar-05 23:29S 29°47' E 031°09'0 0.0
2015-Mar-05 22:29S 29°47' E 031°09'0 0.1
2015-Mar-05 21:29S 29°47' E 031°09'0 0.0
2015-Mar-05 20:29S 29°47' E 031°09'0 0.0
2015-Mar-05 19:33S 29°47' E 031°09'0 0.0
2015-Mar-05 18:33S 29°47' E 031°09'0 0.0
2015-Mar-05 17:33S 29°47' E 031°09'0 0.0
2015-Mar-05 16:33S 29°47' E 031°09'0 0.0
2015-Mar-05 15:33S 29°47' E 031°09'0 0.0
2015-Mar-05 14:33S 29°47' E 031°09'0 0.0
2015-Mar-05 13:33S 29°47' E 031°09'0 0.0
2015-Mar-05 12:33S 29°47' E 031°09'0 0.1
2015-Mar-05 11:33S 29°47' E 031°09'0 0.0
2015-Mar-05 10:33S 29°47' E 031°09'0 0.0
2015-Mar-05 09:33S 29°47' E 031°09'0 0.0
2015-Mar-05 08:33S 29°47' E 031°09'0 0.0
2015-Mar-05 07:33S 29°47' E 031°09'0 0.0
2015-Mar-05 06:33S 29°47' E 031°09'0 0.1
2015-Mar-05 05:33S 29°47' E 031°09'0 0.1
2015-Mar-05 04:33S 29°47' E 031°09'0 0.1
2015-Mar-05 03:33S 29°48' E 031°09'0 0.0
2015-Mar-05 02:33S 29°48' E 031°09'0 0.0
2015-Mar-05 01:33S 29°48' E 031°09'0 0.0
2015-Mar-05 00:33S 29°48' E 031°09'0 0.3
2015-Mar-04 23:33S 29°47' E 031°09'5 5.5
2015-Mar-04 22:33S 29°53' E 031°08'9 8.9
2015-Mar-04 21:33S 30°00' E 031°03'9 8.9
2015-Mar-04 20:33S 30°08' E 030°57'8 7.9
2015-Mar-04 19:31S 30°15' E 030°53'81 7.3
2015-Mar-04 08:21S 31°26' E 030°06'  
Track history (hours):
 
Tides and Currents Weather Stations Pressure Air Temp Water Temp Dewpoint Dewpoint Depression Visibility Wind Speed Wind Dir Waves Ship Positions

Global Glory

Last reported at 2015-Mar-12 22:07 UTC. Time now 2015-Mar-27 08:13 UTC.
Position S 29°34' E 032°05'.
Warning: this ship's position is 14 days out of date.

Length 189 m; draft 5.8 m.

Type: Cargo ship. MMSI: 354338000.

Date/timePositionNaut miles runAvg speedWind from/ knotsBaromVisibWave heightAir tempDewpointWater temp
2015-Mar-12 22:07S 29°34' E 032°05'5 7.9
2015-Mar-12 21:32S 29°35' E 031°60'7 7.6
2015-Mar-12 20:33S 29°38' E 031°51'7 7.3
2015-Mar-12 19:33S 29°40' E 031°44'7 7.0
2015-Mar-12 18:33S 29°42' E 031°36'9 9.2
2015-Mar-12 17:33S 29°44' E 031°26'10 9.5
2015-Mar-12 16:33S 29°48' E 031°15'9 9.1
2015-Mar-12 15:33S 29°51' E 031°06'3 3.1
2015-Mar-12 14:28S 29°52' E 031°02'0 0.0
2015-Mar-12 13:28S 29°52' E 031°02'0 0.0
2015-Mar-12 12:28S 29°52' E 031°02'0 0.0
2015-Mar-12 11:28S 29°52' E 031°02'0 0.0
2015-Mar-12 10:28S 29°52' E 031°02'0 0.0
2015-Mar-12 09:28S 29°52' E 031°02'0 0.0
2015-Mar-12 08:16S 29°52' E 031°02'0 0.0
2015-Mar-12 07:28S 29°52' E 031°02'0 0.0
2015-Mar-12 06:22S 29°52' E 031°02'1 1.4
2015-Mar-12 05:32S 29°53' E 031°03'0 0.0
2015-Mar-12 04:32S 29°53' E 031°03'0 0.0
2015-Mar-12 03:32S 29°53' E 031°03'0 0.0
2015-Mar-12 02:32S 29°53' E 031°03'0 0.0
2015-Mar-12 01:32S 29°53' E 031°03'0 0.0
2015-Mar-12 00:32S 29°53' E 031°03'0 0.0
2015-Mar-11 23:32S 29°53' E 031°03'0 0.0
2015-Mar-11 22:32S 29°53' E 031°03'0 0.0
2015-Mar-11 21:26S 29°53' E 031°03'0 0.0
2015-Mar-11 20:32S 29°53' E 031°03'0 0.0
2015-Mar-11 19:32S 29°53' E 031°03'0 0.0
2015-Mar-11 18:32S 29°53' E 031°03'0 0.0
2015-Mar-11 17:32S 29°53' E 031°03'0 0.0
2015-Mar-11 16:20S 29°53' E 031°03'0 0.0
2015-Mar-11 15:32S 29°53' E 031°03'0 0.0
2015-Mar-11 14:32S 29°53' E 031°03'0 0.0
2015-Mar-11 13:32S 29°53' E 031°03'0 0.0
2015-Mar-11 12:32S 29°53' E 031°03'0 0.0
2015-Mar-11 11:32S 29°53' E 031°03'0 0.0
2015-Mar-11 10:26S 29°53' E 031°03'0 0.0
2015-Mar-11 09:32S 29°53' E 031°03'0 0.0
2015-Mar-11 08:32S 29°53' E 031°03'0 0.0
2015-Mar-11 07:32S 29°53' E 031°03'0 0.0
2015-Mar-11 06:32S 29°53' E 031°03'0 0.0
2015-Mar-11 05:32S 29°53' E 031°03'0 0.0
2015-Mar-11 04:32S 29°53' E 031°03'0 0.0
2015-Mar-11 03:32S 29°53' E 031°03'0 0.0
2015-Mar-11 02:32S 29°53' E 031°03'0 0.0
2015-Mar-11 01:32S 29°53' E 031°03'0 0.0
2015-Mar-11 00:32S 29°53' E 031°03'0 0.0
2015-Mar-10 23:32S 29°53' E 031°03'0 0.0
2015-Mar-10 22:32S 29°53' E 031°03'0 0.0
2015-Mar-10 21:32S 29°53' E 031°03'0 0.0
2015-Mar-10 20:32S 29°53' E 031°03'0 0.0
2015-Mar-10 19:32S 29°53' E 031°03'0 0.0
2015-Mar-10 18:32S 29°53' E 031°03'0 0.0
2015-Mar-10 17:32S 29°53' E 031°03'0 0.0
2015-Mar-10 16:26S 29°53' E 031°03'0 0.0
2015-Mar-09 17:14S 29°53' E 031°03'0 0.0
2015-Mar-09 15:32S 29°53' E 031°03'0 0.0
2015-Mar-09 03:32S 29°53' E 031°03'0 0.0
2015-Mar-09 02:32S 29°53' E 031°03'0 0.0
2015-Mar-09 01:32S 29°53' E 031°03'0 0.0
2015-Mar-09 00:32S 29°53' E 031°03'0 0.0
2015-Mar-08 23:32S 29°53' E 031°03'0 0.0
2015-Mar-08 22:32S 29°53' E 031°03'0 0.0
2015-Mar-08 21:32S 29°53' E 031°03'0 0.0
2015-Mar-08 20:32S 29°53' E 031°03'0 0.0
2015-Mar-08 19:32S 29°53' E 031°03'0 0.0
2015-Mar-08 18:32S 29°53' E 031°03'0 0.0
2015-Mar-08 17:32S 29°53' E 031°03'0 0.0
2015-Mar-08 16:32S 29°53' E 031°03'0 0.0
2015-Mar-08 15:32S 29°53' E 031°03'0 0.0
2015-Mar-08 14:32S 29°53' E 031°03'0 0.0
2015-Mar-08 13:26S 29°53' E 031°03'0 0.0
2015-Mar-08 12:32S 29°53' E 031°03'0 0.0
2015-Mar-08 11:32S 29°53' E 031°03'0 0.0
2015-Mar-08 10:32S 29°53' E 031°03'0 0.0
2015-Mar-08 09:32S 29°53' E 031°03'0 0.0
2015-Mar-08 08:32S 29°53' E 031°03'0 0.0
2015-Mar-08 07:20S 29°53' E 031°03'0 0.0
2015-Mar-08 06:32S 29°53' E 031°03'0 0.0
2015-Mar-08 05:32S 29°53' E 031°03'5 4.5
2015-Mar-08 04:31S 29°49' E 031°07'3 2.5
2015-Mar-08 03:23S 29°47' E 031°09'0 0.0
2015-Mar-08 02:23S 29°47' E 031°09'0 0.0
2015-Mar-08 01:29S 29°47' E 031°09'0 0.0
2015-Mar-08 00:29S 29°47' E 031°09'0 0.0
2015-Mar-07 23:29S 29°47' E 031°09'0 0.0
2015-Mar-07 22:29S 29°47' E 031°09'0 0.1
2015-Mar-07 21:23S 29°47' E 031°09'0 0.0
2015-Mar-07 20:29S 29°47' E 031°09'0 0.0
2015-Mar-07 19:29S 29°47' E 031°09'0 0.0
2015-Mar-07 18:29S 29°47' E 031°09'0 0.0
2015-Mar-07 17:29S 29°47' E 031°09'0 0.0
2015-Mar-07 16:29S 29°47' E 031°09'0 0.0
2015-Mar-07 15:29S 29°47' E 031°09'0 0.1
2015-Mar-07 14:29S 29°47' E 031°09'0 0.1
2015-Mar-07 13:29S 29°47' E 031°09'0 0.0
2015-Mar-07 12:29S 29°47' E 031°09'0 0.1
2015-Mar-07 11:29S 29°47' E 031°09'0 0.0
2015-Mar-07 10:23S 29°47' E 031°09'0 0.0
2015-Mar-07 09:23S 29°47' E 031°09'0 0.0
2015-Mar-07 08:23S 29°47' E 031°09'0 0.0
2015-Mar-07 07:29S 29°47' E 031°09'0 0.1
2015-Mar-07 06:29S 29°47' E 031°09'0 0.0
2015-Mar-07 05:29S 29°47' E 031°09'0 0.0
2015-Mar-07 04:29S 29°47' E 031°09'0 0.0
2015-Mar-07 03:29S 29°47' E 031°09'0 0.0
2015-Mar-07 02:29S 29°47' E 031°09'0 0.0
2015-Mar-07 01:29S 29°47' E 031°09'0 0.0
2015-Mar-07 00:29S 29°47' E 031°09'0 0.0
2015-Mar-06 23:29S 29°47' E 031°09'0 0.0
2015-Mar-06 22:29S 29°47' E 031°09'0 0.0
2015-Mar-06 21:29S 29°47' E 031°09'0 0.0
2015-Mar-06 20:29S 29°47' E 031°09'0 0.0
2015-Mar-06 19:29S 29°47' E 031°09'0 0.0
2015-Mar-06 18:29S 29°47' E 031°09'0 0.0
2015-Mar-06 17:29S 29°47' E 031°09'0 0.0
2015-Mar-06 16:29S 29°47' E 031°09'0 0.0
2015-Mar-06 15:29S 29°47' E 031°09'0 0.0
2015-Mar-06 14:29S 29°47' E 031°09'0 0.0
2015-Mar-06 13:29S 29°47' E 031°09'0 0.0
2015-Mar-06 12:29S 29°47' E 031°09'0 0.0
2015-Mar-06 11:23S 29°47' E 031°09'0 0.0
2015-Mar-06 10:29S 29°47' E 031°09'0 0.0
2015-Mar-06 09:29S 29°47' E 031°09'0 0.0
2015-Mar-06 08:29S 29°47' E 031°09'0 0.1
2015-Mar-06 07:23S 29°47' E 031°09'0 0.0
2015-Mar-06 06:29S 29°47' E 031°09'0 0.0
2015-Mar-06 05:29S 29°47' E 031°09'0 0.0
2015-Mar-06 04:29S 29°47' E 031°09'0 0.0
2015-Mar-06 03:29S 29°47' E 031°09'0 0.0
2015-Mar-06 02:29S 29°47' E 031°09'0 0.0
2015-Mar-06 01:29S 29°47' E 031°09'0 0.0
2015-Mar-06 00:29S 29°47' E 031°09'0 0.0
2015-Mar-05 23:29S 29°47' E 031°09'0 0.0
2015-Mar-05 22:29S 29°47' E 031°09'0 0.1
2015-Mar-05 21:29S 29°47' E 031°09'0 0.0
2015-Mar-05 20:29S 29°47' E 031°09'0 0.0
2015-Mar-05 19:33S 29°47' E 031°09'0 0.0
2015-Mar-05 18:33S 29°47' E 031°09'0 0.0
2015-Mar-05 17:33S 29°47' E 031°09'0 0.0
2015-Mar-05 16:33S 29°47' E 031°09'0 0.0
2015-Mar-05 15:33S 29°47' E 031°09'0 0.0
2015-Mar-05 14:33S 29°47' E 031°09'0 0.0
2015-Mar-05 13:33S 29°47' E 031°09'0 0.0
2015-Mar-05 12:33S 29°47' E 031°09'0 0.1
2015-Mar-05 11:33S 29°47' E 031°09'0 0.0
2015-Mar-05 10:33S 29°47' E 031°09'0 0.0
2015-Mar-05 09:33S 29°47' E 031°09'0 0.0
2015-Mar-05 08:33S 29°47' E 031°09'0 0.0
2015-Mar-05 07:33S 29°47' E 031°09'0 0.0
2015-Mar-05 06:33S 29°47' E 031°09'0 0.1
2015-Mar-05 05:33S 29°47' E 031°09'0 0.1
2015-Mar-05 04:33S 29°47' E 031°09'0 0.1
2015-Mar-05 03:33S 29°48' E 031°09'0 0.0
2015-Mar-05 02:33S 29°48' E 031°09'0 0.0
2015-Mar-05 01:33S 29°48' E 031°09'0 0.0
2015-Mar-05 00:33S 29°48' E 031°09'0 0.3
2015-Mar-04 23:33S 29°47' E 031°09'5 5.5
2015-Mar-04 22:33S 29°53' E 031°08'9 8.9
2015-Mar-04 21:33S 30°00' E 031°03'9 8.9
2015-Mar-04 20:33S 30°08' E 030°57'8 7.9
2015-Mar-04 19:31S 30°15' E 030°53'81 7.3
2015-Mar-04 08:21S 31°26' E 030°06'  

Dump ship's entire track history